sensor_id;sensor_type;location;lat;lon;timestamp;P1;durP1;ratioP1;P2;durP2;ratioP2
14530;SDS011;7352;50.866;4.366;2023-03-01T00:00:13;0.30;;;0.30;;
14530;SDS011;7352;50.866;4.366;2023-03-01T00:02:46;0.30;;;0.30;;
14530;SDS011;7352;50.866;4.366;2023-03-01T00:05:13;0.30;;;0.30;;
14530;SDS011;7352;50.866;4.366;2023-03-01T00:07:41;0.20;;;0.20;;
14530;SDS011;7352;50.866;4.366;2023-03-01T00:10:09;0.30;;;0.30;;
14530;SDS011;7352;50.866;4.366;2023-03-01T00:12:37;0.20;;;0.20;;
14530;SDS011;7352;50.866;4.366;2023-03-01T00:15:04;0.20;;;0.20;;
14530;SDS011;7352;50.866;4.366;2023-03-01T00:17:32;0.30;;;0.30;;
14530;SDS011;7352;50.866;4.366;2023-03-01T00:20:01;0.30;;;0.30;;
14530;SDS011;7352;50.866;4.366;2023-03-01T00:22:28;0.30;;;0.30;;
14530;SDS011;7352;50.866;4.366;2023-03-01T00:24:55;0.30;;;0.30;;
14530;SDS011;7352;50.866;4.366;2023-03-01T00:27:25;0.30;;;0.30;;
14530;SDS011;7352;50.866;4.366;2023-03-01T00:29:52;0.30;;;0.30;;
14530;SDS011;7352;50.866;4.366;2023-03-01T00:32:20;0.30;;;0.30;;
14530;SDS011;7352;50.866;4.366;2023-03-01T00:34:48;0.30;;;0.30;;
14530;SDS011;7352;50.866;4.366;2023-03-01T00:37:29;0.30;;;0.30;;
14530;SDS011;7352;50.866;4.366;2023-03-01T00:39:58;0.30;;;0.30;;
14530;SDS011;7352;50.866;4.366;2023-03-01T00:42:28;0.30;;;0.30;;
14530;SDS011;7352;50.866;4.366;2023-03-01T00:44:58;0.30;;;0.30;;
14530;SDS011;7352;50.866;4.366;2023-03-01T00:47:28;0.30;;;0.30;;
14530;SDS011;7352;50.866;4.366;2023-03-01T00:49:55;0.20;;;0.20;;
14530;SDS011;7352;50.866;4.366;2023-03-01T00:52:22;0.30;;;0.30;;
14530;SDS011;7352;50.866;4.366;2023-03-01T00:54:56;0.20;;;0.20;;
14530;SDS011;7352;50.866;4.366;2023-03-01T00:57:25;0.27;;;0.27;;
14530;SDS011;7352;50.866;4.366;2023-03-01T01:00:05;0.30;;;0.30;;
14530;SDS011;7352;50.866;4.366;2023-03-01T01:02:36;0.30;;;0.30;;
14530;SDS011;7352;50.866;4.366;2023-03-01T01:05:04;0.30;;;0.30;;
14530;SDS011;7352;50.866;4.366;2023-03-01T01:07:39;0.30;;;0.30;;
14530;SDS011;7352;50.866;4.366;2023-03-01T01:10:09;0.30;;;0.30;;
14530;SDS011;7352;50.866;4.366;2023-03-01T01:12:42;0.20;;;0.20;;
14530;SDS011;7352;50.866;4.366;2023-03-01T01:15:10;0.30;;;0.30;;
14530;SDS011;7352;50.866;4.366;2023-03-01T01:17:42;0.30;;;0.30;;
14530;SDS011;7352;50.866;4.366;2023-03-01T01:20:21;0.20;;;0.20;;
14530;SDS011;7352;50.866;4.366;2023-03-01T01:22:49;0.30;;;0.30;;
14530;SDS011;7352;50.866;4.366;2023-03-01T01:25:23;0.30;;;0.30;;
14530;SDS011;7352;50.866;4.366;2023-03-01T01:27:51;0.30;;;0.30;;
14530;SDS011;7352;50.866;4.366;2023-03-01T01:30:21;0.30;;;0.30;;
14530;SDS011;7352;50.866;4.366;2023-03-01T01:32:54;0.30;;;0.30;;
14530;SDS011;7352;50.866;4.366;2023-03-01T01:37:54;0.30;;;0.30;;
14530;SDS011;7352;50.866;4.366;2023-03-01T01:40:21;0.30;;;0.30;;
14530;SDS011;7352;50.866;4.366;2023-03-01T01:42:49;0.20;;;0.20;;
14530;SDS011;7352;50.866;4.366;2023-03-01T01:45:24;0.30;;;0.30;;
14530;SDS011;7352;50.866;4.366;2023-03-01T01:47:59;0.30;;;0.30;;
14530;SDS011;7352;50.866;4.366;2023-03-01T01:50:30;0.30;;;0.30;;
14530;SDS011;7352;50.866;4.366;2023-03-01T01:53:04;0.20;;;0.20;;
14530;SDS011;7352;50.866;4.366;2023-03-01T01:55:36;0.30;;;0.30;;
14530;SDS011;7352;50.866;4.366;2023-03-01T01:58:08;0.30;;;0.30;;
14530;SDS011;7352;50.866;4.366;2023-03-01T02:00:40;0.30;;;0.30;;
14530;SDS011;7352;50.866;4.366;2023-03-01T02:03:08;0.30;;;0.30;;
14530;SDS011;7352;50.866;4.366;2023-03-01T02:05:39;0.30;;;0.30;;
14530;SDS011;7352;50.866;4.366;2023-03-01T02:08:12;0.30;;;0.30;;
14530;SDS011;7352;50.866;4.366;2023-03-01T02:10:42;0.30;;;0.30;;
14530;SDS011;7352;50.866;4.366;2023-03-01T02:13:10;0.30;;;0.30;;
14530;SDS011;7352;50.866;4.366;2023-03-01T02:15:39;0.30;;;0.30;;
14530;SDS011;7352;50.866;4.366;2023-03-01T02:18:09;0.30;;;0.30;;
14530;SDS011;7352;50.866;4.366;2023-03-01T02:20:40;0.30;;;0.30;;
14530;SDS011;7352;50.866;4.366;2023-03-01T02:23:17;0.30;;;0.30;;
14530;SDS011;7352;50.866;4.366;2023-03-01T02:25:47;0.30;;;0.30;;
14530;SDS011;7352;50.866;4.366;2023-03-01T02:28:25;0.30;;;0.30;;
14530;SDS011;7352;50.866;4.366;2023-03-01T02:30:55;0.30;;;0.30;;
14530;SDS011;7352;50.866;4.366;2023-03-01T02:33:41;0.20;;;0.20;;
14530;SDS011;7352;50.866;4.366;2023-03-01T02:36:10;0.30;;;0.30;;
14530;SDS011;7352;50.866;4.366;2023-03-01T02:38:42;0.30;;;0.30;;
14530;SDS011;7352;50.866;4.366;2023-03-01T02:43:42;0.30;;;0.30;;
14530;SDS011;7352;50.866;4.366;2023-03-01T02:48:41;0.30;;;0.30;;
14530;SDS011;7352;50.866;4.366;2023-03-01T02:51:11;0.30;;;0.30;;
14530;SDS011;7352;50.866;4.366;2023-03-01T02:53:49;0.30;;;0.30;;
14530;SDS011;7352;50.866;4.366;2023-03-01T02:56:24;0.30;;;0.30;;
14530;SDS011;7352;50.866;4.366;2023-03-01T02:58:53;0.30;;;0.30;;
14530;SDS011;7352;50.866;4.366;2023-03-01T03:01:26;0.30;;;0.30;;
14530;SDS011;7352;50.866;4.366;2023-03-01T03:04:02;0.30;;;0.30;;
14530;SDS011;7352;50.866;4.366;2023-03-01T03:06:33;0.30;;;0.30;;
14530;SDS011;7352;50.866;4.366;2023-03-01T03:09:01;0.30;;;0.30;;
14530;SDS011;7352;50.866;4.366;2023-03-01T03:11:29;0.30;;;0.30;;
14530;SDS011;7352;50.866;4.366;2023-03-01T03:13:58;0.30;;;0.30;;
14530;SDS011;7352;50.866;4.366;2023-03-01T03:16:27;0.30;;;0.30;;
14530;SDS011;7352;50.866;4.366;2023-03-01T03:18:54;0.30;;;0.30;;
14530;SDS011;7352;50.866;4.366;2023-03-01T03:21:30;0.30;;;0.30;;
14530;SDS011;7352;50.866;4.366;2023-03-01T03:23:59;0.30;;;0.30;;
14530;SDS011;7352;50.866;4.366;2023-03-01T03:26:26;0.30;;;0.30;;
14530;SDS011;7352;50.866;4.366;2023-03-01T03:28:54;0.30;;;0.30;;
14530;SDS011;7352;50.866;4.366;2023-03-01T03:31:23;0.30;;;0.30;;
14530;SDS011;7352;50.866;4.366;2023-03-01T03:33:51;0.30;;;0.30;;
14530;SDS011;7352;50.866;4.366;2023-03-01T03:36:19;0.30;;;0.30;;
14530;SDS011;7352;50.866;4.366;2023-03-01T03:38:49;0.30;;;0.30;;
14530;SDS011;7352;50.866;4.366;2023-03-01T03:41:16;0.30;;;0.30;;
14530;SDS011;7352;50.866;4.366;2023-03-01T03:43:44;0.30;;;0.30;;
14530;SDS011;7352;50.866;4.366;2023-03-01T03:46:12;0.30;;;0.30;;
14530;SDS011;7352;50.866;4.366;2023-03-01T03:48:42;0.30;;;0.30;;
14530;SDS011;7352;50.866;4.366;2023-03-01T03:51:10;0.20;;;0.20;;
14530;SDS011;7352;50.866;4.366;2023-03-01T03:53:38;0.30;;;0.30;;
14530;SDS011;7352;50.866;4.366;2023-03-01T03:56:05;0.30;;;0.30;;
14530;SDS011;7352;50.866;4.366;2023-03-01T03:58:32;0.30;;;0.30;;
14530;SDS011;7352;50.866;4.366;2023-03-01T04:01:00;0.30;;;0.30;;
14530;SDS011;7352;50.866;4.366;2023-03-01T04:03:29;0.30;;;0.30;;
14530;SDS011;7352;50.866;4.366;2023-03-01T04:05:58;0.30;;;0.30;;
14530;SDS011;7352;50.866;4.366;2023-03-01T04:08:26;0.30;;;0.30;;
14530;SDS011;7352;50.866;4.366;2023-03-01T04:10:57;0.30;;;0.30;;
14530;SDS011;7352;50.866;4.366;2023-03-01T04:13:25;0.23;;;0.23;;
14530;SDS011;7352;50.866;4.366;2023-03-01T04:15:53;0.30;;;0.30;;
14530;SDS011;7352;50.866;4.366;2023-03-01T04:18:21;0.30;;;0.30;;
14530;SDS011;7352;50.866;4.366;2023-03-01T04:20:49;0.30;;;0.30;;
14530;SDS011;7352;50.866;4.366;2023-03-01T04:23:21;0.30;;;0.30;;
14530;SDS011;7352;50.866;4.366;2023-03-01T04:25:49;0.30;;;0.30;;
14530;SDS011;7352;50.866;4.366;2023-03-01T04:28:20;0.30;;;0.30;;
14530;SDS011;7352;50.866;4.366;2023-03-01T04:30:49;0.30;;;0.30;;
14530;SDS011;7352;50.866;4.366;2023-03-01T04:33:16;0.30;;;0.30;;
14530;SDS011;7352;50.866;4.366;2023-03-01T04:35:44;0.30;;;0.30;;
14530;SDS011;7352;50.866;4.366;2023-03-01T04:38:14;0.30;;;0.30;;
14530;SDS011;7352;50.866;4.366;2023-03-01T04:40:43;0.30;;;0.30;;
14530;SDS011;7352;50.866;4.366;2023-03-01T04:43:10;0.20;;;0.20;;
14530;SDS011;7352;50.866;4.366;2023-03-01T04:45:43;0.23;;;0.23;;
14530;SDS011;7352;50.866;4.366;2023-03-01T04:48:10;0.37;;;0.37;;
14530;SDS011;7352;50.866;4.366;2023-03-01T04:50:37;0.30;;;0.30;;
14530;SDS011;7352;50.866;4.366;2023-03-01T04:53:04;0.30;;;0.30;;
14530;SDS011;7352;50.866;4.366;2023-03-01T04:55:31;0.30;;;0.30;;
14530;SDS011;7352;50.866;4.366;2023-03-01T04:58:02;0.40;;;0.40;;
14530;SDS011;7352;50.866;4.366;2023-03-01T05:00:30;0.30;;;0.30;;
14530;SDS011;7352;50.866;4.366;2023-03-01T05:02:59;0.30;;;0.30;;
14530;SDS011;7352;50.866;4.366;2023-03-01T05:05:28;0.40;;;0.40;;
14530;SDS011;7352;50.866;4.366;2023-03-01T05:07:58;0.30;;;0.30;;
14530;SDS011;7352;50.866;4.366;2023-03-01T05:10:29;0.40;;;0.40;;
14530;SDS011;7352;50.866;4.366;2023-03-01T05:12:57;0.30;;;0.30;;
14530;SDS011;7352;50.866;4.366;2023-03-01T05:15:26;0.30;;;0.30;;
14530;SDS011;7352;50.866;4.366;2023-03-01T05:17:54;0.30;;;0.30;;
14530;SDS011;7352;50.866;4.366;2023-03-01T05:20:25;0.30;;;0.30;;
14530;SDS011;7352;50.866;4.366;2023-03-01T05:22:54;0.30;;;0.30;;
14530;SDS011;7352;50.866;4.366;2023-03-01T05:25:23;0.30;;;0.30;;
14530;SDS011;7352;50.866;4.366;2023-03-01T05:27:52;0.30;;;0.30;;
14530;SDS011;7352;50.866;4.366;2023-03-01T05:30:19;0.30;;;0.30;;
14530;SDS011;7352;50.866;4.366;2023-03-01T05:32:48;0.30;;;0.30;;
14530;SDS011;7352;50.866;4.366;2023-03-01T05:35:20;0.30;;;0.30;;
14530;SDS011;7352;50.866;4.366;2023-03-01T05:37:48;0.30;;;0.30;;
14530;SDS011;7352;50.866;4.366;2023-03-01T05:40:16;0.30;;;0.30;;
14530;SDS011;7352;50.866;4.366;2023-03-01T05:42:46;0.30;;;0.30;;
14530;SDS011;7352;50.866;4.366;2023-03-01T05:45:14;0.30;;;0.30;;
14530;SDS011;7352;50.866;4.366;2023-03-01T05:47:43;0.30;;;0.30;;
14530;SDS011;7352;50.866;4.366;2023-03-01T05:50:13;0.40;;;0.40;;
14530;SDS011;7352;50.866;4.366;2023-03-01T05:52:44;0.30;;;0.30;;
14530;SDS011;7352;50.866;4.366;2023-03-01T05:55:13;0.30;;;0.30;;
14530;SDS011;7352;50.866;4.366;2023-03-01T05:57:41;0.30;;;0.30;;
14530;SDS011;7352;50.866;4.366;2023-03-01T06:00:08;0.30;;;0.30;;
14530;SDS011;7352;50.866;4.366;2023-03-01T06:02:36;0.30;;;0.30;;
14530;SDS011;7352;50.866;4.366;2023-03-01T06:05:04;0.30;;;0.30;;
14530;SDS011;7352;50.866;4.366;2023-03-01T06:07:33;0.30;;;0.30;;
14530;SDS011;7352;50.866;4.366;2023-03-01T06:10:01;0.30;;;0.30;;
14530;SDS011;7352;50.866;4.366;2023-03-01T06:12:29;0.30;;;0.30;;
14530;SDS011;7352;50.866;4.366;2023-03-01T06:14:57;0.30;;;0.30;;
14530;SDS011;7352;50.866;4.366;2023-03-01T06:17:24;0.30;;;0.30;;
14530;SDS011;7352;50.866;4.366;2023-03-01T06:19:51;0.30;;;0.30;;
14530;SDS011;7352;50.866;4.366;2023-03-01T06:22:18;0.30;;;0.30;;
14530;SDS011;7352;50.866;4.366;2023-03-01T06:24:47;0.30;;;0.30;;
14530;SDS011;7352;50.866;4.366;2023-03-01T06:27:14;0.30;;;0.30;;
14530;SDS011;7352;50.866;4.366;2023-03-01T06:29:41;0.30;;;0.30;;
14530;SDS011;7352;50.866;4.366;2023-03-01T06:32:09;0.40;;;0.40;;
14530;SDS011;7352;50.866;4.366;2023-03-01T06:34:36;0.30;;;0.30;;
14530;SDS011;7352;50.866;4.366;2023-03-01T06:37:03;0.30;;;0.30;;
14530;SDS011;7352;50.866;4.366;2023-03-01T06:39:31;0.30;;;0.30;;
14530;SDS011;7352;50.866;4.366;2023-03-01T06:42:00;0.30;;;0.30;;
14530;SDS011;7352;50.866;4.366;2023-03-01T06:44:27;0.30;;;0.30;;
14530;SDS011;7352;50.866;4.366;2023-03-01T06:47:07;0.30;;;0.30;;
14530;SDS011;7352;50.866;4.366;2023-03-01T06:49:35;0.30;;;0.30;;
14530;SDS011;7352;50.866;4.366;2023-03-01T06:52:03;0.40;;;0.40;;
14530;SDS011;7352;50.866;4.366;2023-03-01T06:54:32;0.30;;;0.30;;
14530;SDS011;7352;50.866;4.366;2023-03-01T06:57:03;0.37;;;0.37;;
14530;SDS011;7352;50.866;4.366;2023-03-01T06:59:32;0.40;;;0.40;;
14530;SDS011;7352;50.866;4.366;2023-03-01T07:01:59;0.30;;;0.30;;
14530;SDS011;7352;50.866;4.366;2023-03-01T07:04:28;0.30;;;0.30;;
14530;SDS011;7352;50.866;4.366;2023-03-01T07:06:55;0.30;;;0.30;;
14530;SDS011;7352;50.866;4.366;2023-03-01T07:09:22;0.30;;;0.30;;
14530;SDS011;7352;50.866;4.366;2023-03-01T07:11:50;0.30;;;0.30;;
14530;SDS011;7352;50.866;4.366;2023-03-01T07:14:18;0.30;;;0.30;;
14530;SDS011;7352;50.866;4.366;2023-03-01T07:16:45;0.30;;;0.30;;
14530;SDS011;7352;50.866;4.366;2023-03-01T07:19:12;0.30;;;0.30;;
14530;SDS011;7352;50.866;4.366;2023-03-01T07:21:39;0.30;;;0.30;;
14530;SDS011;7352;50.866;4.366;2023-03-01T07:24:06;0.30;;;0.30;;
14530;SDS011;7352;50.866;4.366;2023-03-01T07:26:35;0.30;;;0.30;;
14530;SDS011;7352;50.866;4.366;2023-03-01T07:29:04;0.30;;;0.30;;
14530;SDS011;7352;50.866;4.366;2023-03-01T07:31:44;0.30;;;0.30;;
14530;SDS011;7352;50.866;4.366;2023-03-01T07:34:16;0.30;;;0.30;;
14530;SDS011;7352;50.866;4.366;2023-03-01T07:36:43;0.30;;;0.30;;
14530;SDS011;7352;50.866;4.366;2023-03-01T07:39:12;0.30;;;0.30;;
14530;SDS011;7352;50.866;4.366;2023-03-01T07:41:40;0.30;;;0.30;;
14530;SDS011;7352;50.866;4.366;2023-03-01T07:44:09;0.30;;;0.30;;
14530;SDS011;7352;50.866;4.366;2023-03-01T07:46:36;0.30;;;0.30;;
14530;SDS011;7352;50.866;4.366;2023-03-01T07:49:04;0.30;;;0.30;;
14530;SDS011;7352;50.866;4.366;2023-03-01T07:51:31;0.30;;;0.30;;
14530;SDS011;7352;50.866;4.366;2023-03-01T07:53:58;0.30;;;0.30;;
14530;SDS011;7352;50.866;4.366;2023-03-01T07:56:25;0.30;;;0.30;;
14530;SDS011;7352;50.866;4.366;2023-03-01T07:58:59;0.20;;;0.20;;
14530;SDS011;7352;50.866;4.366;2023-03-01T08:01:35;0.30;;;0.30;;
14530;SDS011;7352;50.866;4.366;2023-03-01T08:04:08;0.30;;;0.30;;
14530;SDS011;7352;50.866;4.366;2023-03-01T08:06:39;0.30;;;0.30;;
14530;SDS011;7352;50.866;4.366;2023-03-01T08:09:06;0.30;;;0.30;;
14530;SDS011;7352;50.866;4.366;2023-03-01T08:11:33;0.30;;;0.30;;
14530;SDS011;7352;50.866;4.366;2023-03-01T08:14:02;0.30;;;0.30;;
14530;SDS011;7352;50.866;4.366;2023-03-01T08:16:33;0.30;;;0.30;;
14530;SDS011;7352;50.866;4.366;2023-03-01T08:19:03;0.30;;;0.30;;
14530;SDS011;7352;50.866;4.366;2023-03-01T08:21:36;0.30;;;0.30;;
14530;SDS011;7352;50.866;4.366;2023-03-01T08:24:05;0.30;;;0.30;;
14530;SDS011;7352;50.866;4.366;2023-03-01T08:26:35;0.30;;;0.30;;
14530;SDS011;7352;50.866;4.366;2023-03-01T08:29:03;0.30;;;0.30;;
14530;SDS011;7352;50.866;4.366;2023-03-01T08:31:31;0.30;;;0.30;;
14530;SDS011;7352;50.866;4.366;2023-03-01T08:34:02;0.30;;;0.30;;
14530;SDS011;7352;50.866;4.366;2023-03-01T08:36:34;0.30;;;0.30;;
14530;SDS011;7352;50.866;4.366;2023-03-01T08:39:03;0.30;;;0.30;;
14530;SDS011;7352;50.866;4.366;2023-03-01T08:41:31;0.30;;;0.30;;
14530;SDS011;7352;50.866;4.366;2023-03-01T08:43:58;0.27;;;0.27;;
14530;SDS011;7352;50.866;4.366;2023-03-01T08:46:26;0.20;;;0.20;;
14530;SDS011;7352;50.866;4.366;2023-03-01T08:48:53;0.20;;;0.20;;
14530;SDS011;7352;50.866;4.366;2023-03-01T08:51:20;0.30;;;0.30;;
14530;SDS011;7352;50.866;4.366;2023-03-01T08:53:49;0.30;;;0.30;;
14530;SDS011;7352;50.866;4.366;2023-03-01T08:56:17;0.30;;;0.30;;
14530;SDS011;7352;50.866;4.366;2023-03-01T08:58:45;0.27;;;0.27;;
14530;SDS011;7352;50.866;4.366;2023-03-01T09:01:15;0.20;;;0.20;;
14530;SDS011;7352;50.866;4.366;2023-03-01T09:03:43;0.20;;;0.20;;
14530;SDS011;7352;50.866;4.366;2023-03-01T09:06:11;0.30;;;0.30;;
14530;SDS011;7352;50.866;4.366;2023-03-01T09:08:40;0.30;;;0.30;;
14530;SDS011;7352;50.866;4.366;2023-03-01T09:11:09;0.30;;;0.30;;
14530;SDS011;7352;50.866;4.366;2023-03-01T09:13:37;0.30;;;0.30;;
14530;SDS011;7352;50.866;4.366;2023-03-01T09:16:06;0.30;;;0.30;;
14530;SDS011;7352;50.866;4.366;2023-03-01T09:18:34;0.20;;;0.20;;
14530;SDS011;7352;50.866;4.366;2023-03-01T09:21:02;0.20;;;0.20;;
14530;SDS011;7352;50.866;4.366;2023-03-01T09:23:32;0.20;;;0.20;;
14530;SDS011;7352;50.866;4.366;2023-03-01T09:26:01;0.30;;;0.30;;
14530;SDS011;7352;50.866;4.366;2023-03-01T09:28:29;0.20;;;0.20;;
14530;SDS011;7352;50.866;4.366;2023-03-01T09:30:57;0.30;;;0.30;;
14530;SDS011;7352;50.866;4.366;2023-03-01T09:33:25;0.20;;;0.20;;
14530;SDS011;7352;50.866;4.366;2023-03-01T09:35:55;0.20;;;0.20;;
14530;SDS011;7352;50.866;4.366;2023-03-01T09:38:24;0.30;;;0.30;;
14530;SDS011;7352;50.866;4.366;2023-03-01T09:40:51;0.30;;;0.30;;
14530;SDS011;7352;50.866;4.366;2023-03-01T09:43:21;0.20;;;0.20;;
14530;SDS011;7352;50.866;4.366;2023-03-01T09:45:58;0.30;;;0.30;;
14530;SDS011;7352;50.866;4.366;2023-03-01T09:48:29;0.20;;;0.20;;
14530;SDS011;7352;50.866;4.366;2023-03-01T09:51:05;0.20;;;0.20;;
14530;SDS011;7352;50.866;4.366;2023-03-01T09:53:38;0.30;;;0.30;;
14530;SDS011;7352;50.866;4.366;2023-03-01T09:56:09;0.20;;;0.20;;
14530;SDS011;7352;50.866;4.366;2023-03-01T09:58:46;0.20;;;0.20;;
14530;SDS011;7352;50.866;4.366;2023-03-01T10:01:28;0.30;;;0.30;;
14530;SDS011;7352;50.866;4.366;2023-03-01T10:04:12;0.30;;;0.30;;
14530;SDS011;7352;50.866;4.366;2023-03-01T10:06:56;0.30;;;0.30;;
14530;SDS011;7352;50.866;4.366;2023-03-01T10:09:32;0.20;;;0.20;;
14530;SDS011;7352;50.866;4.366;2023-03-01T10:12:07;0.30;;;0.30;;
14530;SDS011;7352;50.866;4.366;2023-03-01T10:14:38;0.30;;;0.30;;
14530;SDS011;7352;50.866;4.366;2023-03-01T10:17:19;0.20;;;0.20;;
14530;SDS011;7352;50.866;4.366;2023-03-01T10:19:53;0.30;;;0.30;;
14530;SDS011;7352;50.866;4.366;2023-03-01T10:22:26;0.20;;;0.20;;
14530;SDS011;7352;50.866;4.366;2023-03-01T10:24:57;0.30;;;0.30;;
14530;SDS011;7352;50.866;4.366;2023-03-01T10:27:27;0.30;;;0.30;;
14530;SDS011;7352;50.866;4.366;2023-03-01T10:30:10;0.20;;;0.20;;
14530;SDS011;7352;50.866;4.366;2023-03-01T10:32:50;0.20;;;0.20;;
14530;SDS011;7352;50.866;4.366;2023-03-01T10:35:27;0.30;;;0.30;;
14530;SDS011;7352;50.866;4.366;2023-03-01T10:38:02;0.20;;;0.20;;
14530;SDS011;7352;50.866;4.366;2023-03-01T10:40:32;0.20;;;0.20;;
14530;SDS011;7352;50.866;4.366;2023-03-01T10:43:01;0.20;;;0.20;;
14530;SDS011;7352;50.866;4.366;2023-03-01T10:45:31;0.20;;;0.20;;
14530;SDS011;7352;50.866;4.366;2023-03-01T10:48:13;0.20;;;0.20;;
14530;SDS011;7352;50.866;4.366;2023-03-01T10:50:45;0.20;;;0.20;;
14530;SDS011;7352;50.866;4.366;2023-03-01T10:53:24;0.20;;;0.20;;
14530;SDS011;7352;50.866;4.366;2023-03-01T10:56:01;0.20;;;0.20;;
14530;SDS011;7352;50.866;4.366;2023-03-01T10:58:31;0.20;;;0.20;;
14530;SDS011;7352;50.866;4.366;2023-03-01T11:01:01;0.20;;;0.20;;
14530;SDS011;7352;50.866;4.366;2023-03-01T11:03:32;0.20;;;0.20;;
14530;SDS011;7352;50.866;4.366;2023-03-01T11:06:03;0.20;;;0.20;;
14530;SDS011;7352;50.866;4.366;2023-03-01T11:08:33;0.20;;;0.20;;
14530;SDS011;7352;50.866;4.366;2023-03-01T11:11:10;0.20;;;0.20;;
14530;SDS011;7352;50.866;4.366;2023-03-01T11:13:50;0.20;;;0.20;;
14530;SDS011;7352;50.866;4.366;2023-03-01T11:16:29;0.20;;;0.20;;
14530;SDS011;7352;50.866;4.366;2023-03-01T11:19:04;0.20;;;0.20;;
14530;SDS011;7352;50.866;4.366;2023-03-01T11:21:42;0.20;;;0.20;;
14530;SDS011;7352;50.866;4.366;2023-03-01T11:24:14;0.20;;;0.20;;
14530;SDS011;7352;50.866;4.366;2023-03-01T11:26:44;0.20;;;0.20;;
14530;SDS011;7352;50.866;4.366;2023-03-01T11:29:18;0.20;;;0.20;;
14530;SDS011;7352;50.866;4.366;2023-03-01T11:31:53;0.20;;;0.20;;
14530;SDS011;7352;50.866;4.366;2023-03-01T11:34:28;0.20;;;0.20;;
14530;SDS011;7352;50.866;4.366;2023-03-01T11:37:08;0.20;;;0.20;;
14530;SDS011;7352;50.866;4.366;2023-03-01T11:40:03;0.20;;;0.20;;
14530;SDS011;7352;50.866;4.366;2023-03-01T11:42:42;0.20;;;0.20;;
14530;SDS011;7352;50.866;4.366;2023-03-01T11:45:18;0.20;;;0.20;;
14530;SDS011;7352;50.866;4.366;2023-03-01T11:50:44;0.20;;;0.20;;
14530;SDS011;7352;50.866;4.366;2023-03-01T11:53:20;0.20;;;0.20;;
14530;SDS011;7352;50.866;4.366;2023-03-01T11:56:03;0.20;;;0.20;;
14530;SDS011;7352;50.866;4.366;2023-03-01T11:58:40;0.20;;;0.20;;
14530;SDS011;7352;50.866;4.366;2023-03-01T12:01:39;0.20;;;0.20;;
14530;SDS011;7352;50.866;4.366;2023-03-01T12:07:29;0.20;;;0.20;;
14530;SDS011;7352;50.866;4.366;2023-03-01T12:10:18;0.20;;;0.20;;
14530;SDS011;7352;50.866;4.366;2023-03-01T12:12:56;0.20;;;0.20;;
14530;SDS011;7352;50.866;4.366;2023-03-01T12:15:37;0.20;;;0.20;;
14530;SDS011;7352;50.866;4.366;2023-03-01T12:18:19;0.20;;;0.20;;
14530;SDS011;7352;50.866;4.366;2023-03-01T12:21:11;0.20;;;0.20;;
14530;SDS011;7352;50.866;4.366;2023-03-01T12:23:54;0.20;;;0.20;;
14530;SDS011;7352;50.866;4.366;2023-03-01T12:26:34;0.17;;;0.17;;
14530;SDS011;7352;50.866;4.366;2023-03-01T12:35:01;0.20;;;0.20;;
14530;SDS011;7352;50.866;4.366;2023-03-01T12:37:47;0.20;;;0.20;;
14530;SDS011;7352;50.866;4.366;2023-03-01T12:40:36;0.20;;;0.20;;
14530;SDS011;7352;50.866;4.366;2023-03-01T12:43:17;0.10;;;0.10;;
14530;SDS011;7352;50.866;4.366;2023-03-01T12:46:03;0.20;;;0.20;;
14530;SDS011;7352;50.866;4.366;2023-03-01T12:48:47;0.20;;;0.20;;
14530;SDS011;7352;50.866;4.366;2023-03-01T12:51:26;0.20;;;0.20;;
14530;SDS011;7352;50.866;4.366;2023-03-01T12:53:58;0.20;;;0.20;;
14530;SDS011;7352;50.866;4.366;2023-03-01T12:56:30;0.20;;;0.20;;
14530;SDS011;7352;50.866;4.366;2023-03-01T12:59:04;0.20;;;0.20;;
14530;SDS011;7352;50.866;4.366;2023-03-01T13:01:40;0.20;;;0.20;;
14530;SDS011;7352;50.866;4.366;2023-03-01T13:07:05;0.20;;;0.20;;
14530;SDS011;7352;50.866;4.366;2023-03-01T13:09:51;0.20;;;0.20;;
14530;SDS011;7352;50.866;4.366;2023-03-01T13:12:44;0.20;;;0.20;;
14530;SDS011;7352;50.866;4.366;2023-03-01T13:18:03;0.20;;;0.20;;
14530;SDS011;7352;50.866;4.366;2023-03-01T13:21:00;0.20;;;0.20;;
14530;SDS011;7352;50.866;4.366;2023-03-01T13:23:36;0.10;;;0.10;;
14530;SDS011;7352;50.866;4.366;2023-03-01T13:26:07;0.20;;;0.20;;
14530;SDS011;7352;50.866;4.366;2023-03-01T13:28:50;0.20;;;0.20;;
14530;SDS011;7352;50.866;4.366;2023-03-01T13:34:41;0.20;;;0.20;;
14530;SDS011;7352;50.866;4.366;2023-03-01T13:37:17;0.20;;;0.20;;
14530;SDS011;7352;50.866;4.366;2023-03-01T13:39:51;0.20;;;0.20;;
14530;SDS011;7352;50.866;4.366;2023-03-01T13:42:32;0.20;;;0.20;;
14530;SDS011;7352;50.866;4.366;2023-03-01T13:45:05;0.23;;;0.23;;
14530;SDS011;7352;50.866;4.366;2023-03-01T13:47:44;0.20;;;0.20;;
14530;SDS011;7352;50.866;4.366;2023-03-01T13:50:16;0.20;;;0.20;;
14530;SDS011;7352;50.866;4.366;2023-03-01T13:52:50;0.20;;;0.20;;
14530;SDS011;7352;50.866;4.366;2023-03-01T13:55:23;0.20;;;0.20;;
14530;SDS011;7352;50.866;4.366;2023-03-01T13:57:54;0.20;;;0.20;;
14530;SDS011;7352;50.866;4.366;2023-03-01T14:00:31;0.20;;;0.20;;
14530;SDS011;7352;50.866;4.366;2023-03-01T14:03:09;0.20;;;0.20;;
14530;SDS011;7352;50.866;4.366;2023-03-01T14:05:57;0.20;;;0.20;;
14530;SDS011;7352;50.866;4.366;2023-03-01T14:08:33;0.20;;;0.20;;
14530;SDS011;7352;50.866;4.366;2023-03-01T14:11:13;0.10;;;0.10;;
14530;SDS011;7352;50.866;4.366;2023-03-01T14:14:07;0.20;;;0.20;;
14530;SDS011;7352;50.866;4.366;2023-03-01T14:17:13;0.20;;;0.20;;
14530;SDS011;7352;50.866;4.366;2023-03-01T14:20:09;0.20;;;0.20;;
14530;SDS011;7352;50.866;4.366;2023-03-01T14:22:43;0.20;;;0.20;;
14530;SDS011;7352;50.866;4.366;2023-03-01T14:28:14;0.10;;;0.10;;
14530;SDS011;7352;50.866;4.366;2023-03-01T14:30:56;0.10;;;0.10;;
14530;SDS011;7352;50.866;4.366;2023-03-01T14:33:30;0.10;;;0.10;;
14530;SDS011;7352;50.866;4.366;2023-03-01T14:36:03;0.20;;;0.20;;
14530;SDS011;7352;50.866;4.366;2023-03-01T14:38:35;0.10;;;0.10;;
14530;SDS011;7352;50.866;4.366;2023-03-01T14:41:06;0.20;;;0.20;;
14530;SDS011;7352;50.866;4.366;2023-03-01T14:43:37;0.20;;;0.20;;
14530;SDS011;7352;50.866;4.366;2023-03-01T14:46:16;0.20;;;0.20;;
14530;SDS011;7352;50.866;4.366;2023-03-01T14:48:44;0.20;;;0.20;;
14530;SDS011;7352;50.866;4.366;2023-03-01T14:51:14;0.10;;;0.10;;
14530;SDS011;7352;50.866;4.366;2023-03-01T14:53:41;0.20;;;0.20;;
14530;SDS011;7352;50.866;4.366;2023-03-01T14:56:14;0.10;;;0.10;;
14530;SDS011;7352;50.866;4.366;2023-03-01T14:58:44;0.20;;;0.20;;
14530;SDS011;7352;50.866;4.366;2023-03-01T15:01:13;0.20;;;0.20;;
14530;SDS011;7352;50.866;4.366;2023-03-01T15:03:43;0.20;;;0.20;;
14530;SDS011;7352;50.866;4.366;2023-03-01T15:06:14;0.13;;;0.13;;
14530;SDS011;7352;50.866;4.366;2023-03-01T15:08:44;0.20;;;0.20;;
14530;SDS011;7352;50.866;4.366;2023-03-01T15:11:27;0.20;;;0.20;;
14530;SDS011;7352;50.866;4.366;2023-03-01T15:13:56;0.20;;;0.20;;
14530;SDS011;7352;50.866;4.366;2023-03-01T15:16:24;0.10;;;0.10;;
14530;SDS011;7352;50.866;4.366;2023-03-01T15:18:56;0.20;;;0.20;;
14530;SDS011;7352;50.866;4.366;2023-03-01T15:21:29;0.20;;;0.20;;
14530;SDS011;7352;50.866;4.366;2023-03-01T15:24:00;0.10;;;0.10;;
14530;SDS011;7352;50.866;4.366;2023-03-01T15:26:32;0.20;;;0.20;;
14530;SDS011;7352;50.866;4.366;2023-03-01T15:29:11;0.10;;;0.10;;
14530;SDS011;7352;50.866;4.366;2023-03-01T15:31:52;0.20;;;0.20;;
14530;SDS011;7352;50.866;4.366;2023-03-01T15:34:22;0.10;;;0.10;;
14530;SDS011;7352;50.866;4.366;2023-03-01T15:36:50;0.10;;;0.10;;
14530;SDS011;7352;50.866;4.366;2023-03-01T15:39:36;0.10;;;0.10;;
14530;SDS011;7352;50.866;4.366;2023-03-01T15:42:07;0.20;;;0.20;;
14530;SDS011;7352;50.866;4.366;2023-03-01T15:44:36;0.20;;;0.20;;
14530;SDS011;7352;50.866;4.366;2023-03-01T15:47:08;0.10;;;0.10;;
14530;SDS011;7352;50.866;4.366;2023-03-01T15:49:50;0.10;;;0.10;;
14530;SDS011;7352;50.866;4.366;2023-03-01T15:52:21;0.10;;;0.10;;
14530;SDS011;7352;50.866;4.366;2023-03-01T15:54:54;0.10;;;0.10;;
14530;SDS011;7352;50.866;4.366;2023-03-01T15:57:23;0.10;;;0.10;;
14530;SDS011;7352;50.866;4.366;2023-03-01T15:59:50;0.10;;;0.10;;